createdAt,value
2022-12-27T15:59:32.772Z,2.40
2022-12-27T16:00:03.608Z,3.30
2022-12-27T16:00:34.834Z,4.50
2022-12-27T16:01:06.910Z,4.30
2022-12-27T16:01:37.871Z,4.80
2022-12-27T16:02:09.161Z,7.70
2022-12-27T16:02:40.444Z,5.30
2022-12-27T16:03:11.931Z,6.60
2022-12-27T16:03:43.087Z,6.40
2022-12-27T16:04:14.138Z,5.80
2022-12-27T16:04:45.349Z,5.60
2022-12-27T16:05:16.390Z,4.60
2022-12-27T16:05:47.310Z,4.70
2022-12-27T16:06:18.425Z,4.10
2022-12-27T16:06:49.310Z,4.60
2022-12-27T16:07:20.143Z,3.90
2022-12-27T16:07:51.071Z,9.90
2022-12-27T16:08:22.776Z,10.30
2022-12-27T16:08:53.646Z,8.10
2022-12-27T16:09:24.477Z,7.60
2022-12-27T16:09:55.318Z,7.70
2022-12-27T16:10:26.130Z,10.30
2022-12-27T16:10:56.960Z,9.60
2022-12-27T16:11:27.790Z,31.10
2022-12-27T16:11:58.932Z,24.90
2022-12-27T16:12:30.047Z,41.20
2022-12-27T16:13:00.952Z,47.50
2022-12-27T16:13:36.014Z,51.30
2022-12-27T16:14:01.754Z,53.10
2022-12-27T16:14:32.690Z,46.10
2022-12-27T16:15:03.742Z,59.20
2022-12-27T16:15:35.008Z,60.80
2022-12-27T16:16:05.869Z,65.80
2022-12-27T16:16:36.707Z,66.50
2022-12-27T16:17:07.671Z,60.80
2022-12-27T16:17:38.877Z,36.30
2022-12-27T16:18:09.674Z,24.60
2022-12-27T16:18:40.521Z,33.80
2022-12-27T16:19:11.347Z,18.40
2022-12-27T16:19:42.178Z,12.90
2022-12-27T16:20:13.040Z,11.80
2022-12-27T16:20:43.855Z,9.40
2022-12-27T16:21:15.040Z,6.40
2022-12-27T16:21:46.144Z,6.50
2022-12-27T16:22:17.046Z,4.60
2022-12-27T16:22:47.969Z,5.80
2022-12-27T16:23:18.880Z,5.80
2022-12-27T16:23:49.774Z,6.20
2022-12-27T16:24:20.591Z,6.50
2022-12-27T16:24:51.447Z,6.10
2022-12-27T16:25:26.996Z,5.70
2022-12-27T16:25:54.986Z,5.50
2022-12-27T16:26:25.839Z,6.60
2022-12-27T16:26:56.698Z,14.00
2022-12-27T16:27:27.555Z,20.70
2022-12-27T16:27:58.373Z,8.70
2022-12-27T16:28:29.248Z,6.20
2022-12-27T16:29:00.250Z,8.30
2022-12-27T16:29:31.034Z,8.00
2022-12-27T16:30:01.956Z,5.80
2022-12-27T16:30:32.750Z,5.80
2022-12-27T16:31:04.211Z,5.40
2022-12-27T16:31:37.933Z,5.80
2022-12-27T16:32:07.792Z,10.40
2022-12-27T16:32:38.707Z,8.30
2022-12-27T16:33:09.702Z,9.30
2022-12-27T16:33:40.709Z,6.20
2022-12-27T16:34:11.732Z,6.50
2022-12-27T16:34:42.837Z,6.70
2022-12-27T16:35:13.856Z,11.00
2022-12-27T16:35:44.675Z,6.10
2022-12-27T16:36:15.697Z,6.90
2022-12-27T16:36:46.615Z,8.10
2022-12-27T16:37:17.512Z,5.50
2022-12-27T16:37:48.369Z,4.70
2022-12-27T16:38:19.620Z,5.50
2022-12-27T16:38:50.721Z,5.00
2022-12-27T16:39:26.966Z,4.80
2022-12-27T16:39:51.646Z,7.30
2022-12-27T16:40:22.424Z,4.70
2022-12-27T16:40:53.214Z,7.00
2022-12-27T16:41:24.016Z,6.40
2022-12-27T16:41:55.213Z,6.10
2022-12-27T16:42:25.999Z,6.00
2022-12-27T16:42:56.768Z,5.10
2022-12-27T16:43:27.554Z,4.30
2022-12-27T16:43:58.374Z,5.00
2022-12-27T16:44:33.134Z,5.30
2022-12-27T16:45:01.771Z,4.40
2022-12-27T16:45:32.538Z,5.10
2022-12-27T16:46:03.353Z,5.60
2022-12-27T16:46:34.148Z,4.10
2022-12-27T16:47:05.080Z,4.50
2022-12-27T16:47:35.875Z,5.70
2022-12-27T16:48:06.662Z,4.60
2022-12-27T16:48:37.451Z,4.30
2022-12-27T16:49:08.235Z,4.80
2022-12-27T16:49:39.021Z,4.70
2022-12-27T16:50:09.826Z,4.70
2022-12-27T16:50:41.320Z,4.90
2022-12-27T16:51:12.362Z,5.50
2022-12-27T16:51:43.132Z,5.50
2022-12-27T16:52:13.936Z,4.50
2022-12-27T16:52:44.730Z,5.40
2022-12-27T16:53:15.520Z,4.10
2022-12-27T16:53:46.291Z,4.80
2022-12-27T16:54:17.052Z,4.90
2022-12-27T16:54:47.822Z,4.30
2022-12-27T16:56:17.358Z,4.10
2022-12-27T16:56:48.241Z,4.70
2022-12-27T16:57:19.995Z,4.20
2022-12-27T16:57:50.834Z,4.60
2022-12-27T16:58:21.630Z,5.50
2022-12-27T16:58:52.406Z,4.10
2022-12-27T16:59:23.175Z,5.10
2022-12-27T16:59:53.988Z,4.10
2022-12-27T17:00:24.764Z,5.00
2022-12-27T17:00:55.562Z,4.30
2022-12-27T17:01:26.619Z,4.40
2022-12-27T17:01:57.567Z,5.80
2022-12-27T17:02:28.509Z,4.40
2022-12-27T17:02:59.352Z,4.50
2022-12-27T17:03:30.163Z,3.50
2022-12-27T17:04:00.923Z,4.10
2022-12-27T17:04:31.683Z,3.50
2022-12-27T17:05:02.470Z,4.30
2022-12-27T17:05:33.268Z,5.00
2022-12-27T17:06:34.662Z,5.30
2022-12-27T17:06:36.717Z,5.10
2022-12-27T17:07:07.550Z,4.40
2022-12-27T17:07:38.319Z,5.00
2022-12-27T17:08:09.090Z,5.00
2022-12-27T17:08:39.865Z,6.30
2022-12-27T17:09:10.859Z,8.50
2022-12-27T17:09:41.744Z,7.60
2022-12-27T17:10:12.559Z,18.10
2022-12-27T17:10:43.343Z,16.60
2022-12-27T17:11:14.119Z,13.30
2022-12-27T17:11:44.876Z,13.90
2022-12-27T17:12:15.629Z,10.70
2022-12-27T17:12:46.381Z,10.80
2022-12-27T17:13:17.129Z,11.80
2022-12-27T17:13:47.887Z,11.70
2022-12-27T17:14:18.651Z,17.20
2022-12-27T17:14:49.403Z,19.50
2022-12-27T17:15:21.701Z,15.20
2022-12-27T17:15:52.699Z,24.20
2022-12-27T17:16:24.523Z,29.00
2022-12-27T17:16:55.431Z,25.80
2022-12-27T17:17:26.287Z,19.60
2022-12-27T17:18:01.261Z,18.80
2022-12-27T17:18:29.124Z,17.80
2022-12-27T17:19:00.089Z,16.80
2022-12-27T17:19:31.173Z,15.80
2022-12-27T17:20:02.114Z,16.10
2022-12-27T17:20:34.240Z,10.20
2022-12-27T17:21:05.129Z,7.50
2022-12-27T17:21:36.008Z,7.00
2022-12-27T17:22:06.897Z,7.80
2022-12-27T17:22:38.046Z,8.00
2022-12-27T17:23:09.217Z,7.60
2022-12-27T17:23:40.266Z,7.40
2022-12-27T17:24:11.244Z,6.50
2022-12-27T17:24:42.132Z,7.60
2022-12-27T17:25:12.996Z,6.80
2022-12-27T17:25:44.152Z,7.30
2022-12-27T17:26:15.249Z,6.20
2022-12-27T17:26:46.220Z,6.70
2022-12-27T17:27:17.188Z,6.50
2022-12-27T17:27:48.047Z,6.90
2022-12-27T17:28:19.236Z,6.40
2022-12-27T17:28:50.543Z,6.10
2022-12-27T17:29:24.825Z,7.20
2022-12-27T17:29:54.649Z,7.50
2022-12-27T17:30:25.816Z,9.40
2022-12-27T17:30:56.765Z,8.70
2022-12-27T17:31:27.838Z,7.00
2022-12-27T17:31:58.767Z,7.60
2022-12-27T17:32:29.898Z,8.20
2022-12-27T17:33:00.892Z,8.30
2022-12-27T17:33:31.771Z,10.20
2022-12-27T17:34:02.857Z,9.40
2022-12-27T17:34:33.685Z,9.70
2022-12-27T17:35:04.683Z,7.90
2022-12-27T17:35:35.582Z,7.60
2022-12-27T17:36:06.905Z,7.60
2022-12-27T17:36:37.920Z,8.20
2022-12-27T17:37:08.983Z,8.20
2022-12-27T17:37:39.874Z,7.40
2022-12-27T17:38:10.854Z,7.70
2022-12-27T17:38:41.753Z,7.70
2022-12-27T17:39:12.862Z,7.50
2022-12-27T17:39:43.924Z,6.40
2022-12-27T17:40:14.937Z,6.40
2022-12-27T17:40:46.061Z,7.40
2022-12-27T17:41:17.173Z,7.90
2022-12-27T17:41:48.233Z,7.80
2022-12-27T17:42:19.365Z,10.30
2022-12-27T17:42:50.621Z,10.00
2022-12-27T17:43:21.563Z,11.70
2022-12-27T17:43:52.608Z,12.80
2022-12-27T17:44:23.524Z,12.80
2022-12-27T17:44:54.485Z,9.10
2022-12-27T17:45:25.512Z,9.30
2022-12-27T17:45:56.384Z,8.40
2022-12-27T17:46:27.427Z,8.10
2022-12-27T17:46:58.455Z,8.30
2022-12-27T17:47:29.461Z,7.80
2022-12-27T17:48:00.585Z,8.10
2022-12-27T17:48:31.756Z,8.30
2022-12-27T17:49:02.599Z,8.80
2022-12-27T17:49:33.539Z,9.90
2022-12-27T17:50:04.457Z,10.10
2022-12-27T17:50:35.316Z,12.40
2022-12-27T17:51:06.277Z,11.90
2022-12-27T17:51:37.450Z,10.20
2022-12-27T17:52:08.492Z,11.40
2022-12-27T17:52:39.507Z,19.30
2022-12-27T17:53:14.615Z,10.60
2022-12-27T17:53:42.684Z,10.40
2022-12-27T17:54:13.711Z,11.80
2022-12-27T17:54:45.486Z,12.50
2022-12-27T17:55:16.521Z,16.90
2022-12-27T17:55:47.920Z,21.90
2022-12-27T17:56:19.092Z,66.60
2022-12-27T17:56:50.192Z,85.40
2022-12-27T17:57:21.309Z,49.10
2022-12-27T17:57:52.147Z,26.90
2022-12-27T17:58:23.028Z,26.60
2022-12-27T17:58:59.655Z,30.70
2022-12-27T17:59:26.609Z,30.80
2022-12-27T17:59:57.825Z,36.90
2022-12-27T18:00:28.734Z,35.70
2022-12-27T18:00:59.862Z,74.30
2022-12-27T18:01:30.767Z,110.30
2022-12-27T18:02:02.107Z,93.40
2022-12-27T18:02:33.116Z,67.60
2022-12-27T18:03:04.068Z,107.90
2022-12-27T18:03:34.954Z,71.70
2022-12-27T18:04:06.024Z,44.20
2022-12-27T18:04:37.011Z,36.20
2022-12-27T18:05:07.800Z,29.50
2022-12-27T18:05:38.724Z,25.90
2022-12-27T18:06:10.121Z,25.10
2022-12-27T18:06:41.248Z,30.90
2022-12-27T18:07:12.111Z,41.60
2022-12-27T18:07:43.126Z,71.50
2022-12-27T18:08:14.185Z,58.50
2022-12-27T18:08:45.185Z,49.40
2022-12-27T18:09:16.190Z,49.10
2022-12-27T18:09:47.111Z,53.20
2022-12-27T18:10:18.350Z,49.40
2022-12-27T18:10:49.360Z,30.10
2022-12-27T18:11:26.320Z,19.60
2022-12-27T18:11:53.293Z,46.70
2022-12-27T18:12:24.340Z,77.50
2022-12-27T18:12:55.464Z,130.60
2022-12-27T18:13:26.448Z,112.80
2022-12-27T18:13:57.365Z,91.90
2022-12-27T18:14:28.317Z,89.60
2022-12-27T18:14:59.477Z,29.70
2022-12-27T18:15:30.606Z,66.50
2022-12-27T18:16:01.652Z,68.40
2022-12-27T18:16:32.718Z,63.00
2022-12-27T18:17:03.829Z,36.80
2022-12-27T18:17:34.833Z,115.00
2022-12-27T18:18:06.530Z,152.00
2022-12-27T18:18:37.497Z,60.80
2022-12-27T18:19:08.428Z,117.70
2022-12-27T18:19:39.518Z,112.30
2022-12-27T18:20:10.806Z,97.60
2022-12-27T18:20:41.664Z,38.90
2022-12-27T18:21:12.604Z,49.60
2022-12-27T18:21:43.511Z,62.70
2022-12-27T18:22:14.611Z,114.60
2022-12-27T18:22:45.490Z,71.60
2022-12-27T18:23:16.428Z,45.40
2022-12-27T18:23:47.280Z,37.40
2022-12-27T18:24:18.163Z,35.40
2022-12-27T18:24:49.095Z,41.00
2022-12-27T18:25:19.997Z,43.70
2022-12-27T18:25:50.991Z,51.40
2022-12-27T18:26:21.829Z,43.30
2022-12-27T18:26:52.881Z,18.40
2022-12-27T18:27:23.937Z,16.50
2022-12-27T18:27:54.904Z,12.30
2022-12-27T18:28:32.138Z,12.40
2022-12-27T18:28:58.739Z,12.50
2022-12-27T18:29:29.705Z,14.10
2022-12-27T18:30:00.644Z,11.90
2022-12-27T18:30:31.536Z,12.40
2022-12-27T18:31:02.477Z,11.60
2022-12-27T18:31:33.456Z,11.20
2022-12-27T18:32:04.513Z,13.00
2022-12-27T18:32:35.774Z,10.60
2022-12-27T18:33:06.746Z,10.40
2022-12-27T18:33:37.672Z,11.00
2022-12-27T18:34:08.509Z,10.30
2022-12-27T18:34:39.589Z,9.90
2022-12-27T18:35:10.619Z,9.90
2022-12-27T18:35:41.529Z,9.50
2022-12-27T18:36:12.543Z,10.10
2022-12-27T18:36:43.518Z,9.30
2022-12-27T18:37:15.340Z,11.30
2022-12-27T18:37:46.334Z,12.90
2022-12-27T18:38:17.280Z,13.60
2022-12-27T18:38:48.272Z,15.60
2022-12-27T18:39:19.354Z,14.60
2022-12-27T18:39:50.224Z,20.70
2022-12-27T18:40:21.296Z,20.10
2022-12-27T18:40:53.230Z,22.30
2022-12-27T18:41:24.286Z,23.40
2022-12-27T18:41:55.183Z,20.70
2022-12-27T18:42:26.092Z,18.00
2022-12-27T18:42:57.070Z,14.80
2022-12-27T18:43:27.921Z,12.10
2022-12-27T18:43:58.755Z,12.10
2022-12-27T18:44:29.948Z,12.10
2022-12-27T18:45:00.814Z,12.90
2022-12-27T18:45:31.772Z,11.70
2022-12-27T18:46:02.843Z,11.00
2022-12-27T18:46:33.739Z,11.90
2022-12-27T18:47:04.600Z,11.10
2022-12-27T18:47:35.969Z,11.40
2022-12-27T18:48:07.044Z,11.50
2022-12-27T18:48:37.910Z,11.40
2022-12-27T18:49:08.750Z,10.50
2022-12-27T18:49:39.802Z,13.40
2022-12-27T18:50:10.675Z,12.90
2022-12-27T18:50:41.671Z,12.30
2022-12-27T18:51:12.727Z,12.40
2022-12-27T18:51:43.989Z,11.40
2022-12-27T18:52:15.388Z,11.80
2022-12-27T18:52:51.311Z,11.80
2022-12-27T18:53:19.163Z,11.90
2022-12-27T18:53:50.232Z,11.90
2022-12-27T18:54:21.726Z,11.40
2022-12-27T18:54:52.850Z,11.80
2022-12-27T18:55:23.753Z,11.20
2022-12-27T18:55:54.739Z,12.50
2022-12-27T18:56:25.650Z,12.30
2022-12-27T18:56:56.697Z,12.20
2022-12-27T18:57:27.596Z,12.20
2022-12-27T18:57:58.534Z,13.10
2022-12-27T18:58:29.427Z,15.50
2022-12-27T18:59:00.924Z,13.80
2022-12-27T18:59:31.982Z,13.30
2022-12-27T19:00:02.758Z,14.40
2022-12-27T19:00:33.536Z,12.30
2022-12-27T19:01:04.366Z,12.80
2022-12-27T19:01:35.238Z,13.50
2022-12-27T19:02:06.194Z,12.40
2022-12-27T19:02:37.166Z,12.70
2022-12-27T19:03:08.175Z,13.60
2022-12-27T19:03:41.080Z,15.00
2022-12-27T19:04:11.953Z,15.60
2022-12-27T19:04:43.930Z,14.90
2022-12-27T19:05:14.803Z,15.80
2022-12-27T19:05:45.962Z,14.30
2022-12-27T19:06:17.013Z,13.50
2022-12-27T19:06:48.165Z,18.10
2022-12-27T19:07:19.057Z,18.00
2022-12-27T19:07:49.989Z,14.00
2022-12-27T19:08:21.114Z,14.30
2022-12-27T19:08:51.948Z,12.80
2022-12-27T19:09:23.161Z,13.30
2022-12-27T19:09:54.300Z,12.40
2022-12-27T19:10:25.487Z,12.70
2022-12-27T19:10:56.699Z,12.70
2022-12-27T19:11:31.668Z,15.90
2022-12-27T19:12:00.329Z,14.30
2022-12-27T19:12:31.185Z,14.30
2022-12-27T19:13:02.139Z,13.90
2022-12-27T19:13:33.173Z,16.30
2022-12-27T19:14:04.156Z,16.80
2022-12-27T19:14:34.956Z,15.50
2022-12-27T19:15:05.878Z,12.90
2022-12-27T19:15:36.798Z,38.00
2022-12-27T19:16:07.636Z,48.50
2022-12-27T19:16:38.459Z,34.80
2022-12-27T19:17:11.431Z,38.70
2022-12-27T19:17:39.386Z,19.00
2022-12-27T19:18:10.207Z,15.70
2022-12-27T19:18:41.110Z,15.20
2022-12-27T19:19:11.921Z,16.20
2022-12-27T19:20:44.842Z,19.40
2022-12-27T19:21:15.623Z,21.90
2022-12-27T19:21:46.843Z,15.60
2022-12-27T19:22:17.626Z,15.10
2022-12-27T19:22:48.425Z,14.80
2022-12-27T19:23:19.192Z,14.80
2022-12-27T19:23:50.045Z,14.90
2022-12-27T19:24:20.820Z,14.30
2022-12-27T19:24:51.592Z,14.80
2022-12-27T19:25:22.364Z,14.70
2022-12-27T19:26:00.135Z,14.90
2022-12-27T19:26:26.139Z,15.20
2022-12-27T19:26:56.919Z,15.40
2022-12-27T19:27:27.665Z,14.20
2022-12-27T19:27:58.426Z,15.20
2022-12-27T19:28:29.233Z,14.70
2022-12-27T19:29:00.032Z,14.90
2022-12-27T19:29:30.799Z,15.50
2022-12-27T19:30:01.574Z,16.70
2022-12-27T19:30:32.361Z,15.00
2022-12-27T19:31:03.179Z,15.40
2022-12-27T19:31:34.025Z,16.70
2022-12-27T19:32:08.700Z,14.80
2022-12-27T19:32:39.504Z,14.50
2022-12-27T19:33:10.275Z,15.40
2022-12-27T19:33:41.082Z,15.40
2022-12-27T19:34:11.885Z,15.00
2022-12-27T19:34:42.649Z,15.80
2022-12-27T19:35:13.444Z,14.80
2022-12-27T19:35:44.225Z,15.40
2022-12-27T19:36:15.007Z,15.40
2022-12-27T19:36:45.908Z,17.90
2022-12-27T19:37:16.643Z,24.90
2022-12-27T19:37:47.415Z,22.10
2022-12-27T19:38:18.201Z,17.90
2022-12-27T19:38:48.996Z,18.70
2022-12-27T19:39:19.819Z,16.10
2022-12-27T19:39:50.608Z,17.40
2022-12-27T19:40:21.392Z,17.90
2022-12-27T19:40:54.364Z,16.50
2022-12-27T19:41:24.842Z,17.80
2022-12-27T19:42:01.178Z,16.80
2022-12-27T19:42:28.228Z,16.60
2022-12-27T19:42:59.708Z,16.80
2022-12-27T19:43:30.803Z,15.70
2022-12-27T19:44:02.350Z,17.00
2022-12-27T19:44:33.756Z,17.30
2022-12-27T19:45:04.895Z,16.70
2022-12-27T19:45:36.060Z,17.60
2022-12-27T19:46:07.220Z,17.20
2022-12-27T19:46:38.560Z,17.60
2022-12-27T19:47:09.947Z,19.10
2022-12-27T19:47:41.093Z,17.60
2022-12-27T19:48:12.716Z,17.10
2022-12-27T19:48:43.994Z,17.50
2022-12-27T19:49:42.179Z,16.80
2022-12-27T19:49:45.233Z,17.50
2022-12-27T19:50:16.400Z,17.30
2022-12-27T19:50:47.272Z,18.20
2022-12-27T19:51:18.476Z,17.80
2022-12-27T19:51:49.429Z,17.40
2022-12-27T19:52:20.563Z,18.10
2022-12-27T19:52:51.419Z,19.10
2022-12-27T19:53:22.241Z,18.60
2022-12-27T19:53:57.514Z,17.80
2022-12-27T19:54:25.982Z,20.10
2022-12-27T19:54:57.205Z,18.70
2022-12-27T19:55:28.204Z,19.10
2022-12-27T19:55:59.316Z,19.20
2022-12-27T19:56:30.209Z,18.20
2022-12-27T19:57:01.214Z,18.30
2022-12-27T19:57:32.122Z,19.80
2022-12-27T19:58:03.143Z,18.70
2022-12-27T19:58:34.178Z,18.50
2022-12-27T19:59:05.139Z,18.40
2022-12-27T19:59:36.014Z,18.90
2022-12-27T20:00:12.361Z,18.50
2022-12-27T20:00:40.094Z,18.80
2022-12-27T20:01:11.046Z,19.50
2022-12-27T20:01:42.144Z,19.40
2022-12-27T20:02:13.437Z,20.50
2022-12-27T20:02:44.584Z,19.90
2022-12-27T20:03:15.714Z,19.70
2022-12-27T20:03:46.993Z,19.40
2022-12-27T20:04:17.880Z,20.00
2022-12-27T20:04:48.715Z,20.00
2022-12-27T20:06:12.528Z,20.80
2022-12-27T20:06:12.568Z,21.50
2022-12-27T20:06:28.179Z,21.00
2022-12-27T20:06:56.385Z,20.70
2022-12-27T20:07:27.285Z,21.40
2022-12-27T20:07:58.287Z,21.30
2022-12-27T20:08:29.159Z,21.10
2022-12-27T20:09:00.091Z,21.10
2022-12-27T20:09:31.121Z,20.70
2022-12-27T20:10:02.361Z,20.70
2022-12-27T20:10:33.245Z,21.20
2022-12-27T20:11:04.504Z,21.40
2022-12-27T20:11:35.518Z,21.10
2022-12-27T20:12:06.413Z,21.30
2022-12-27T20:12:37.285Z,22.20
2022-12-27T20:13:08.092Z,23.80
2022-12-27T20:13:38.958Z,22.50
2022-12-27T20:14:09.833Z,21.80
2022-12-27T20:14:40.757Z,21.30
2022-12-27T20:15:11.592Z,21.70
2022-12-27T20:15:42.439Z,21.20
2022-12-27T20:16:13.473Z,21.70
2022-12-27T20:16:44.435Z,21.90
2022-12-27T20:17:15.423Z,20.80
2022-12-27T20:17:46.493Z,21.00
2022-12-27T20:18:17.494Z,21.00
2022-12-27T20:18:48.427Z,21.80
2022-12-27T20:19:19.369Z,22.10
2022-12-27T20:19:50.467Z,20.50
2022-12-27T20:20:21.453Z,21.70
2022-12-27T20:20:52.369Z,21.20
2022-12-27T20:21:23.468Z,21.00
2022-12-27T20:21:54.340Z,21.60
2022-12-27T20:22:25.192Z,21.00
2022-12-27T20:22:56.187Z,21.70
2022-12-27T20:23:27.243Z,22.40
2022-12-27T20:24:05.882Z,22.30
2022-12-27T20:24:30.611Z,22.50
2022-12-27T20:25:01.407Z,21.60
2022-12-27T20:25:32.175Z,22.10
2022-12-27T20:26:03.335Z,22.70
2022-12-27T20:26:34.159Z,22.60
2022-12-27T20:27:04.949Z,22.60
2022-12-27T20:27:35.721Z,22.20
2022-12-27T20:28:06.484Z,22.00
2022-12-27T20:28:37.248Z,21.70
2022-12-27T20:29:08.040Z,22.10
2022-12-27T20:29:38.837Z,22.00
2022-12-27T20:30:09.607Z,22.70
2022-12-27T20:30:41.306Z,25.30
2022-12-27T20:31:12.360Z,26.80
2022-12-27T20:31:45.342Z,24.50
2022-12-27T20:32:13.504Z,23.50
2022-12-27T20:32:44.462Z,23.90
2022-12-27T20:33:15.307Z,22.60
2022-12-27T20:33:46.105Z,23.80
2022-12-27T20:34:17.537Z,23.30
2022-12-27T20:34:48.475Z,24.20
2022-12-27T20:35:19.291Z,23.20
2022-12-27T20:35:50.308Z,24.80
2022-12-27T20:36:21.501Z,26.10
2022-12-27T20:36:52.364Z,24.40
2022-12-27T20:37:24.947Z,24.90
2022-12-27T20:37:56.058Z,24.60
2022-12-27T20:38:27.011Z,23.50
2022-12-27T20:38:58.282Z,23.70
2022-12-27T20:39:29.239Z,23.30
2022-12-27T20:40:00.238Z,25.20
2022-12-27T20:40:31.147Z,23.70
2022-12-27T20:41:02.105Z,24.20
2022-12-27T20:41:33.024Z,23.70
2022-12-27T20:42:03.896Z,24.00
2022-12-27T20:42:34.833Z,24.50
2022-12-27T20:43:05.747Z,23.90
2022-12-27T20:43:36.797Z,22.80
2022-12-27T20:44:07.741Z,24.30
2022-12-27T20:44:38.699Z,24.80
2022-12-27T20:45:09.635Z,24.40
2022-12-27T20:45:40.733Z,24.10
2022-12-27T20:46:11.674Z,24.50
2022-12-27T20:46:42.663Z,24.30
2022-12-27T20:47:13.553Z,24.40
2022-12-27T20:47:44.466Z,24.60
2022-12-27T20:48:15.269Z,22.80
2022-12-27T20:48:46.426Z,24.10
2022-12-27T20:49:17.627Z,24.20
2022-12-27T20:49:48.503Z,23.60
2022-12-27T20:50:19.452Z,24.40
2022-12-27T20:50:50.709Z,25.10
2022-12-27T20:51:22.248Z,25.10
2022-12-27T20:51:53.443Z,24.10
2022-12-27T20:52:30.828Z,23.90
2022-12-27T20:52:57.310Z,24.40
2022-12-27T20:53:28.375Z,24.90
2022-12-27T20:53:59.365Z,24.30
2022-12-27T20:54:30.605Z,25.30
2022-12-27T20:55:01.582Z,25.10
2022-12-27T20:55:32.697Z,23.20
2022-12-27T20:56:03.597Z,24.00
2022-12-27T20:56:34.501Z,24.30
2022-12-27T20:57:05.448Z,23.80
2022-12-27T20:57:36.806Z,24.20
2022-12-27T20:58:07.910Z,25.00
2022-12-27T20:58:38.796Z,24.80
2022-12-27T20:59:09.686Z,25.30
2022-12-27T20:59:40.857Z,25.50
2022-12-27T21:00:11.820Z,25.00
2022-12-27T21:00:42.669Z,24.80
2022-12-27T21:01:13.829Z,25.40
2022-12-27T21:01:44.816Z,26.10
2022-12-27T21:02:15.950Z,24.30
2022-12-27T21:02:47.065Z,25.90
2022-12-27T21:03:17.343Z,25.80
2022-12-27T21:03:48.328Z,27.80
2022-12-27T21:04:19.367Z,26.20
2022-12-27T21:04:50.259Z,24.50
2022-12-27T21:05:21.341Z,26.60
2022-12-27T21:05:52.423Z,25.10
2022-12-27T21:06:23.375Z,25.10
2022-12-27T21:06:54.292Z,25.60
2022-12-27T21:07:25.207Z,25.80
2022-12-27T21:07:56.483Z,26.90
2022-12-27T21:08:27.453Z,27.00
2022-12-27T21:08:58.565Z,26.20
2022-12-27T21:09:29.659Z,25.80
2022-12-27T21:10:00.928Z,26.00
2022-12-27T21:10:31.807Z,25.50
2022-12-27T21:11:02.839Z,25.90
2022-12-27T21:11:33.821Z,27.00
2022-12-27T21:12:04.685Z,26.80
2022-12-27T21:12:35.562Z,27.50
2022-12-27T21:13:06.559Z,26.90
2022-12-27T21:13:38.038Z,27.60
2022-12-27T21:14:08.925Z,27.20
2022-12-27T21:14:40.206Z,26.20
2022-12-27T21:15:11.158Z,27.20
2022-12-27T21:15:42.707Z,26.80
2022-12-27T21:16:13.843Z,25.70
2022-12-27T21:16:44.782Z,28.10
2022-12-27T21:17:15.656Z,27.40
2022-12-27T21:17:46.803Z,27.80
2022-12-27T21:18:17.704Z,26.80
2022-12-27T21:18:48.540Z,27.30
2022-12-27T21:19:19.513Z,26.30
2022-12-27T21:19:50.353Z,26.10
2022-12-27T21:20:21.463Z,27.90
2022-12-27T21:20:52.344Z,27.80
2022-12-27T21:21:27.391Z,27.70
2022-12-27T21:21:56.084Z,27.00
2022-12-27T21:22:26.959Z,27.80
2022-12-27T21:22:58.000Z,28.40
2022-12-27T21:23:28.826Z,26.90
2022-12-27T21:23:59.947Z,28.80
2022-12-27T21:24:31.018Z,28.00
2022-12-27T21:25:01.959Z,27.10
2022-12-27T21:25:32.751Z,26.90
2022-12-27T21:26:03.618Z,27.80
2022-12-27T21:26:34.744Z,29.30
2022-12-27T21:27:05.789Z,27.10
2022-12-27T21:27:37.494Z,27.50
2022-12-27T21:28:08.657Z,28.40
2022-12-27T21:28:39.679Z,28.40
2022-12-27T21:29:10.496Z,28.10
2022-12-27T21:29:41.485Z,27.40
2022-12-27T21:30:12.474Z,28.40
2022-12-27T21:30:43.446Z,28.90
2022-12-27T21:31:14.409Z,29.30
2022-12-27T21:31:45.339Z,29.50
2022-12-27T21:32:16.281Z,29.10
2022-12-27T21:32:47.248Z,28.70
2022-12-27T21:33:18.438Z,27.80
2022-12-27T21:33:49.284Z,26.90
2022-12-27T21:34:20.197Z,28.30
2022-12-27T21:34:51.122Z,27.70
2022-12-27T21:35:22.191Z,29.60
2022-12-27T21:35:53.170Z,28.70
2022-12-27T21:36:24.097Z,28.40
2022-12-27T21:36:55.101Z,28.80
2022-12-27T21:37:26.318Z,28.70
2022-12-27T21:37:57.291Z,29.60
2022-12-27T21:38:28.351Z,29.30
2022-12-27T21:38:59.309Z,29.50
2022-12-27T21:39:30.308Z,28.60
2022-12-27T21:40:01.248Z,29.20
2022-12-27T21:40:32.197Z,29.60
2022-12-27T21:41:03.044Z,29.20
2022-12-27T21:41:33.952Z,29.30
2022-12-27T21:42:04.826Z,29.90
2022-12-27T21:42:35.753Z,29.90
2022-12-27T21:43:07.026Z,29.40
2022-12-27T21:43:37.895Z,29.50
2022-12-27T21:44:08.884Z,28.60
2022-12-27T21:44:39.997Z,29.40
2022-12-27T21:45:10.922Z,30.40
2022-12-27T21:45:42.023Z,29.70
2022-12-27T21:46:13.085Z,29.00
2022-12-27T21:46:44.087Z,28.30
2022-12-27T21:47:15.103Z,30.60
2022-12-27T21:47:46.029Z,29.70
2022-12-27T21:48:17.011Z,30.20
2022-12-27T21:48:48.249Z,30.20
2022-12-27T21:49:19.101Z,29.90
2022-12-27T21:49:50.090Z,28.00
2022-12-27T21:50:21.013Z,28.60
2022-12-27T21:50:52.079Z,29.90
2022-12-27T21:51:23.169Z,29.70
2022-12-27T21:51:53.975Z,29.80
2022-12-27T21:52:24.869Z,29.70
2022-12-27T21:52:55.953Z,29.90
2022-12-27T21:53:27.246Z,29.40
2022-12-27T21:53:58.167Z,30.80
2022-12-27T21:54:29.204Z,30.20
2022-12-27T21:55:00.155Z,29.30
2022-12-27T21:55:31.058Z,30.10
2022-12-27T21:56:02.120Z,29.70
2022-12-27T21:56:33.072Z,28.90
2022-12-27T21:57:04.155Z,28.90
2022-12-27T21:57:35.041Z,29.70
2022-12-27T21:58:06.156Z,29.80
2022-12-27T21:58:37.465Z,28.60
2022-12-27T21:59:08.490Z,28.90
2022-12-27T21:59:39.596Z,28.40
2022-12-27T22:00:10.544Z,29.20
2022-12-27T22:00:41.351Z,28.20
2022-12-27T22:01:12.504Z,30.30
2022-12-27T22:01:50.567Z,29.50
2022-12-27T22:02:16.412Z,29.20
2022-12-27T22:02:47.560Z,29.70
2022-12-27T22:03:18.941Z,29.00
2022-12-27T22:03:50.000Z,29.10
2022-12-27T22:04:21.240Z,28.90
2022-12-27T22:04:52.174Z,29.50
2022-12-27T22:05:23.290Z,29.30
2022-12-27T22:05:54.259Z,28.40
2022-12-27T22:06:25.130Z,29.80
2022-12-27T22:06:56.075Z,29.00
2022-12-27T22:07:27.113Z,30.10
2022-12-27T22:07:58.200Z,28.50
2022-12-27T22:08:29.169Z,28.70
2022-12-27T22:09:00.096Z,27.60
2022-12-27T22:09:31.052Z,28.80
2022-12-27T22:10:02.026Z,29.60
2022-12-27T22:10:33.169Z,29.10
2022-12-27T22:11:04.204Z,29.20
2022-12-27T22:11:35.113Z,29.80
2022-12-27T22:12:06.115Z,28.60
2022-12-27T22:12:37.386Z,29.30
2022-12-27T22:13:08.267Z,28.90
2022-12-27T22:13:39.333Z,29.30
2022-12-27T22:14:10.302Z,30.00
2022-12-27T22:14:41.282Z,29.50
2022-12-27T22:15:12.542Z,28.40
2022-12-27T22:15:43.859Z,29.60
2022-12-27T22:16:15.024Z,29.80
2022-12-27T22:16:46.026Z,28.20
2022-12-27T22:17:17.100Z,29.10
2022-12-27T22:17:48.174Z,28.70
2022-12-27T22:18:19.172Z,29.40
2022-12-27T22:18:50.151Z,28.20
2022-12-27T22:19:21.208Z,27.50
2022-12-27T22:19:52.308Z,28.80
2022-12-27T22:20:23.200Z,29.00
2022-12-27T22:20:54.011Z,28.20
2022-12-27T22:21:25.132Z,28.00
2022-12-27T22:21:56.086Z,28.50
2022-12-27T22:22:27.054Z,28.30
2022-12-27T22:22:57.918Z,29.40
2022-12-27T22:23:28.766Z,29.30
2022-12-27T22:23:59.614Z,28.10
2022-12-27T22:24:31.017Z,28.30
2022-12-27T22:25:01.977Z,28.60
2022-12-27T22:25:32.825Z,28.40
2022-12-27T22:26:03.645Z,28.80
2022-12-27T22:26:34.458Z,29.30
2022-12-27T22:27:05.353Z,28.40
2022-12-27T22:27:36.749Z,28.10
2022-12-27T22:28:07.795Z,28.60
2022-12-27T22:28:38.829Z,28.80
2022-12-27T22:29:09.955Z,29.20
2022-12-27T22:29:40.855Z,28.50
2022-12-27T22:30:11.958Z,28.20
2022-12-27T22:30:42.938Z,28.80
2022-12-27T22:31:13.843Z,28.70
2022-12-27T22:31:44.787Z,29.10
2022-12-27T22:32:15.592Z,29.50
2022-12-27T22:32:46.368Z,29.70
2022-12-27T22:33:17.595Z,29.10
2022-12-27T22:33:48.580Z,29.60
2022-12-27T22:34:19.779Z,28.90
2022-12-27T22:34:50.956Z,29.10
2022-12-27T22:35:21.787Z,29.00
2022-12-27T22:35:52.681Z,29.30
2022-12-27T22:36:23.517Z,30.40
2022-12-27T22:36:54.541Z,29.60
2022-12-27T22:37:25.492Z,30.40
2022-12-27T22:37:56.467Z,29.20
2022-12-27T22:38:28.050Z,29.40
2022-12-27T22:38:59.073Z,30.40
2022-12-27T22:39:30.248Z,28.70
2022-12-27T22:40:01.132Z,28.70
2022-12-27T22:40:43.110Z,28.60
2022-12-27T22:41:04.664Z,29.80
2022-12-27T22:41:35.603Z,29.90
2022-12-27T22:42:06.549Z,28.70
2022-12-27T22:42:38.049Z,28.10
2022-12-27T22:43:08.960Z,29.00
2022-12-27T22:43:40.134Z,28.70